Time,TemperatureF,DewpointF,PressureIn,WindDirection,WindDirectionDegrees,WindSpeedMPH,WindSpeedGustMPH,Humidity,HourlyPrecipIn,Conditions,Clouds,dailyrainin,SoftwareType,DateUTC
2013-01-23 00:01:00,25.0,4.6,30.26,North,0,0.0,0.0,41,0.00,,,0.00,WUHU216HW,2013-01-23 05:01:00,
2013-01-23 00:03:00,25.0,4.6,30.25,North,0,0.0,0.0,41,0.00,,,0.00,WUHU216HW,2013-01-23 05:03:00,
2013-01-23 00:08:00,24.8,4.4,30.26,North,0,0.0,0.0,41,0.00,,,0.00,WUHU216HW,2013-01-23 05:08:00,
2013-01-23 00:13:00,24.8,4.4,30.25,North,0,0.0,0.0,41,0.00,,,0.00,WUHU216HW,2013-01-23 05:13:00,
2013-01-23 00:18:00,24.8,5.0,30.25,North,0,0.0,0.0,42,0.00,,,0.00,WUHU216HW,2013-01-23 05:18:00,
2013-01-23 00:23:00,24.8,5.4,30.25,North,0,0.0,0.0,43,0.00,,,0.00,WUHU216HW,2013-01-23 05:23:00,
2013-01-23 00:28:00,24.3,5.0,30.25,North,0,0.0,0.0,43,0.00,,,0.00,WUHU216HW,2013-01-23 05:28:00,
2013-01-23 00:33:00,24.1,4.8,30.25,North,0,0.0,0.0,43,0.00,,,0.00,WUHU216HW,2013-01-23 05:33:00,
2013-01-23 00:38:00,24.1,5.2,30.25,North,0,0.0,0.0,44,0.00,,,0.00,WUHU216HW,2013-01-23 05:38:00,
2013-01-23 00:43:00,24.3,5.4,30.25,North,0,0.0,0.0,44,0.00,,,0.00,WUHU216HW,2013-01-23 05:43:00,
2013-01-23 00:48:00,24.1,5.2,30.25,North,0,0.0,0.0,44,0.00,,,0.00,WUHU216HW,2013-01-23 05:48:00,
2013-01-23 00:53:00,23.9,5.6,30.26,North,0,0.0,0.0,45,0.00,,,0.00,WUHU216HW,2013-01-23 05:53:00,
2013-01-23 00:58:00,23.8,6.0,30.26,North,0,0.0,0.0,46,0.00,,,0.00,WUHU216HW,2013-01-23 05:58:00,
2013-01-23 01:03:00,23.4,6.0,30.26,North,0,0.0,0.0,47,0.00,,,0.00,WUHU216HW,2013-01-23 06:03:00,
2013-01-23 01:08:00,22.7,5.4,30.26,North,0,0.0,0.0,47,0.00,,,0.00,WUHU216HW,2013-01-23 06:08:00,
2013-01-23 01:13:00,22.3,5.5,30.26,North,0,0.0,0.0,48,0.00,,,0.00,WUHU216HW,2013-01-23 06:13:00,
2013-01-23 01:18:00,22.3,5.5,30.26,North,0,0.0,0.0,48,0.00,,,0.00,WUHU216HW,2013-01-23 06:18:00,
2013-01-23 01:23:00,22.3,5.5,30.25,North,0,0.0,0.0,48,0.00,,,0.00,WUHU216HW,2013-01-23 06:23:00,
2013-01-23 01:28:00,22.7,5.9,30.25,North,0,0.0,0.0,48,0.00,,,0.00,WUHU216HW,2013-01-23 06:28:00,
2013-01-23 01:33:00,22.7,6.4,30.25,North,0,0.0,0.0,49,0.00,,,0.00,WUHU216HW,2013-01-23 06:33:00,
2013-01-23 01:38:00,22.5,6.7,30.26,North,0,0.0,0.0,50,0.00,,,0.00,WUHU216HW,2013-01-23 06:38:00,
2013-01-23 01:43:00,22.5,6.7,30.26,North,0,0.0,0.0,50,0.00,,,0.00,WUHU216HW,2013-01-23 06:43:00,
2013-01-23 01:48:00,22.5,6.7,30.27,North,0,0.0,0.0,50,0.00,,,0.00,WUHU216HW,2013-01-23 06:48:00,
2013-01-23 01:53:00,22.3,6.8,30.27,North,0,0.0,0.0,51,0.00,,,0.00,WUHU216HW,2013-01-23 06:53:00,
2013-01-23 01:58:00,22.3,6.8,30.26,North,0,0.0,0.0,51,0.00,,,0.00,WUHU216HW,2013-01-23 06:58:00,
2013-01-23 02:03:00,22.1,7.1,30.27,North,0,0.0,0.0,52,0.00,,,0.00,WUHU216HW,2013-01-23 07:03:00,
2013-01-23 02:08:00,21.8,7.2,30.27,North,0,0.0,0.0,53,0.00,,,0.00,WUHU216HW,2013-01-23 07:08:00,
2013-01-23 02:13:00,21.2,6.7,30.27,North,0,0.0,0.0,53,0.00,,,0.00,WUHU216HW,2013-01-23 07:13:00,
2013-01-23 02:18:00,21.2,6.7,30.27,North,0,0.0,0.0,53,0.00,,,0.00,WUHU216HW,2013-01-23 07:18:00,
2013-01-23 02:23:00,21.2,6.7,30.27,North,0,0.0,0.0,53,0.00,,,0.00,WUHU216HW,2013-01-23 07:23:00,
2013-01-23 02:28:00,21.4,6.9,30.27,North,0,0.0,0.0,53,0.00,,,0.00,WUHU216HW,2013-01-23 07:28:00,
2013-01-23 02:33:00,21.2,6.2,30.27,North,0,0.0,0.0,52,0.00,,,0.00,WUHU216HW,2013-01-23 07:33:00,
2013-01-23 02:38:00,21.1,6.0,30.27,North,0,0.0,0.0,52,0.00,,,0.00,WUHU216HW,2013-01-23 07:38:00,
2013-01-23 02:43:00,20.9,6.0,30.27,North,0,0.0,0.0,52,0.00,,,0.00,WUHU216HW,2013-01-23 07:43:00,
2013-01-23 02:48:00,20.9,6.3,30.28,North,0,0.0,0.0,53,0.00,,,0.00,WUHU216HW,2013-01-23 07:48:00,
2013-01-23 02:53:00,21.1,6.5,30.27,North,0,0.0,0.0,53,0.00,,,0.00,WUHU216HW,2013-01-23 07:53:00,
2013-01-23 02:58:00,21.2,6.7,30.28,North,0,0.0,0.0,53,0.00,,,0.00,WUHU216HW,2013-01-23 07:58:00,
2013-01-23 03:03:00,20.7,6.6,30.27,North,0,0.0,0.0,54,0.00,,,0.00,WUHU216HW,2013-01-23 08:03:00,
2013-01-23 03:08:00,20.2,6.0,30.27,North,0,0.0,0.0,54,0.00,,,0.00,WUHU216HW,2013-01-23 08:08:00,
2013-01-23 03:13:00,20.0,5.9,30.27,North,0,0.0,0.0,54,0.00,,,0.00,WUHU216HW,2013-01-23 08:13:00,
2013-01-23 03:18:00,19.8,5.7,30.27,North,0,0.0,0.0,54,0.00,,,0.00,WUHU216HW,2013-01-23 08:18:00,
2013-01-23 03:23:00,19.6,5.5,30.28,North,0,0.0,0.0,54,0.00,,,0.00,WUHU216HW,2013-01-23 08:23:00,
2013-01-23 03:28:00,20.0,5.9,30.28,North,0,0.0,0.0,54,0.00,,,0.00,WUHU216HW,2013-01-23 08:28:00,
2013-01-23 03:33:00,20.3,6.2,30.28,North,0,0.0,0.0,54,0.00,,,0.00,WUHU216HW,2013-01-23 08:33:00,
2013-01-23 03:38:00,20.5,6.8,30.28,North,0,0.0,0.0,55,0.00,,,0.00,WUHU216HW,2013-01-23 08:38:00,
2013-01-23 03:43:00,20.5,6.8,30.28,North,0,0.0,0.0,55,0.00,,,0.00,WUHU216HW,2013-01-23 08:43:00,
2013-01-23 03:48:00,20.0,6.3,30.28,North,0,0.0,0.0,55,0.00,,,0.00,WUHU216HW,2013-01-23 08:48:00,
2013-01-23 03:53:00,19.8,6.1,30.28,North,0,0.0,0.0,55,0.00,,,0.00,WUHU216HW,2013-01-23 08:53:00,
2013-01-23 03:58:00,19.8,6.1,30.28,North,0,0.0,0.0,55,0.00,,,0.00,WUHU216HW,2013-01-23 08:58:00,
2013-01-23 04:03:00,19.8,6.1,30.28,North,0,0.0,0.0,55,0.00,,,0.00,WUHU216HW,2013-01-23 09:03:00,
2013-01-23 04:08:00,20.2,6.5,30.28,North,0,0.0,0.0,55,0.00,,,0.00,WUHU216HW,2013-01-23 09:08:00,
2013-01-23 04:13:00,20.3,7.0,30.28,North,0,0.0,0.0,56,0.00,,,0.00,WUHU216HW,2013-01-23 09:13:00,
2013-01-23 04:18:00,20.3,7.0,30.28,North,0,0.0,0.0,56,0.00,,,0.00,WUHU216HW,2013-01-23 09:18:00,
2013-01-23 04:23:00,20.0,7.1,30.28,North,0,0.0,0.0,57,0.00,,,0.00,WUHU216HW,2013-01-23 09:23:00,
2013-01-23 04:28:00,19.6,6.8,30.28,North,0,0.0,0.0,57,0.00,,,0.00,WUHU216HW,2013-01-23 09:28:00,
2013-01-23 04:33:00,19.1,6.7,30.28,North,0,0.0,0.0,58,0.00,,,0.00,WUHU216HW,2013-01-23 09:33:00,
2013-01-23 04:38:00,19.1,7.0,30.28,North,0,0.0,0.0,59,0.00,,,0.00,WUHU216HW,2013-01-23 09:38:00,
2013-01-23 04:43:00,18.9,6.8,30.29,North,0,0.0,0.0,59,0.00,,,0.00,WUHU216HW,2013-01-23 09:43:00,
2013-01-23 04:48:00,18.7,6.3,30.29,North,0,0.0,0.0,58,0.00,,,0.00,WUHU216HW,2013-01-23 09:48:00,
2013-01-23 04:53:00,18.5,6.1,30.29,North,0,0.0,0.0,58,0.00,,,0.00,WUHU216HW,2013-01-23 09:53:00,
2013-01-23 04:58:00,18.5,6.6,30.28,North,0,0.0,0.0,59,0.00,,,0.00,WUHU216HW,2013-01-23 09:58:00,
2013-01-23 05:03:00,18.5,6.1,30.28,North,0,0.0,0.0,58,0.00,,,0.00,WUHU216HW,2013-01-23 10:03:00,
2013-01-23 05:08:00,19.1,6.7,30.28,North,0,0.0,0.0,58,0.00,,,0.00,WUHU216HW,2013-01-23 10:08:00,
2013-01-23 05:13:00,19.1,6.7,30.28,North,0,0.0,0.0,58,0.00,,,0.00,WUHU216HW,2013-01-23 10:13:00,
2013-01-23 05:18:00,19.1,6.7,30.29,North,0,0.0,0.0,58,0.00,,,0.00,WUHU216HW,2013-01-23 10:18:00,
2013-01-23 05:23:00,19.3,6.8,30.30,North,0,0.0,0.0,58,0.00,,,0.00,WUHU216HW,2013-01-23 10:23:00,
2013-01-23 05:28:00,19.4,6.9,30.29,North,0,0.0,0.0,58,0.00,,,0.00,WUHU216HW,2013-01-23 10:28:00,
2013-01-23 05:33:00,19.4,6.9,30.29,North,0,0.0,0.0,58,0.00,,,0.00,WUHU216HW,2013-01-23 10:33:00,
2013-01-23 05:39:00,19.4,6.9,30.29,North,0,0.0,0.0,58,0.00,,,0.00,WUHU216HW,2013-01-23 10:39:00,
2013-01-23 05:44:00,19.4,6.9,30.29,North,0,0.0,0.0,58,0.00,,,0.00,WUHU216HW,2013-01-23 10:44:00,
2013-01-23 05:49:00,19.4,6.9,30.29,North,0,0.0,0.0,58,0.00,,,0.00,WUHU216HW,2013-01-23 10:49:00,
2013-01-23 05:54:00,19.1,7.0,30.29,North,0,0.0,0.0,59,0.00,,,0.00,WUHU216HW,2013-01-23 10:54:00,
2013-01-23 05:59:00,18.9,6.8,30.29,North,0,0.0,0.0,59,0.00,,,0.00,WUHU216HW,2013-01-23 10:59:00,
2013-01-23 06:04:00,18.5,6.9,30.29,North,0,0.0,0.0,60,0.00,,,0.00,WUHU216HW,2013-01-23 11:04:00,
2013-01-23 06:09:00,18.5,6.9,30.30,North,0,0.0,0.0,60,0.00,,,0.00,WUHU216HW,2013-01-23 11:09:00,
2013-01-23 06:14:00,18.4,6.8,30.30,North,0,0.0,0.0,60,0.00,,,0.00,WUHU216HW,2013-01-23 11:14:00,
2013-01-23 06:19:00,18.2,6.6,30.30,North,0,0.0,0.0,60,0.00,,,0.00,WUHU216HW,2013-01-23 11:19:00,
2013-01-23 06:24:00,17.8,6.3,30.30,North,0,0.0,0.0,60,0.00,,,0.00,WUHU216HW,2013-01-23 11:24:00,
2013-01-23 06:29:00,17.8,6.7,30.31,North,0,0.0,0.0,61,0.00,,,0.00,WUHU216HW,2013-01-23 11:29:00,
2013-01-23 06:34:00,17.8,6.7,30.31,North,0,0.0,0.0,61,0.00,,,0.00,WUHU216HW,2013-01-23 11:34:00,
2013-01-23 06:39:00,18.0,6.8,30.31,North,0,0.0,0.0,61,0.00,,,0.00,WUHU216HW,2013-01-23 11:39:00,
2013-01-23 06:44:00,18.4,7.1,30.31,North,0,0.0,0.0,61,0.00,,,0.00,WUHU216HW,2013-01-23 11:44:00,
2013-01-23 06:49:00,18.5,7.3,30.32,North,0,0.0,0.0,61,0.00,,,0.00,WUHU216HW,2013-01-23 11:49:00,
2013-01-23 06:54:00,18.7,7.5,30.32,North,0,0.0,0.0,61,0.00,,,0.00,WUHU216HW,2013-01-23 11:54:00,
2013-01-23 06:59:00,18.7,7.5,30.31,North,0,0.0,0.0,61,0.00,,,0.00,WUHU216HW,2013-01-23 11:59:00,
2013-01-23 07:04:00,18.2,7.3,30.32,North,0,0.0,0.0,62,0.00,,,0.00,WUHU216HW,2013-01-23 12:04:00,
2013-01-23 07:09:00,17.8,6.9,30.32,North,0,0.0,0.0,62,0.00,,,0.00,WUHU216HW,2013-01-23 12:09:00,
2013-01-23 07:14:00,17.8,6.7,30.32,North,0,0.0,0.0,61,0.00,,,0.00,WUHU216HW,2013-01-23 12:14:00,
2013-01-23 07:19:00,17.8,6.7,30.32,North,0,0.0,0.0,61,0.00,,,0.00,WUHU216HW,2013-01-23 12:19:00,
2013-01-23 07:24:00,18.0,6.8,30.32,North,0,0.0,0.0,61,0.00,,,0.00,WUHU216HW,2013-01-23 12:24:00,
2013-01-23 07:29:00,18.0,6.8,30.32,North,0,0.0,0.0,61,0.00,,,0.00,WUHU216HW,2013-01-23 12:29:00,
2013-01-23 07:34:00,17.8,6.9,30.32,North,0,0.0,0.0,62,0.00,,,0.00,WUHU216HW,2013-01-23 12:34:00,
2013-01-23 07:39:00,18.0,6.8,30.32,North,0,0.0,0.0,61,0.00,,,0.00,WUHU216HW,2013-01-23 12:39:00,
2013-01-23 07:44:00,18.4,7.1,30.32,North,0,0.0,0.0,61,0.00,,,0.00,WUHU216HW,2013-01-23 12:44:00,
2013-01-23 07:49:00,18.4,7.1,30.32,North,0,0.0,0.0,61,0.00,,,0.00,WUHU216HW,2013-01-23 12:49:00,
2013-01-23 07:54:00,18.7,7.7,30.32,North,0,0.0,0.0,62,0.00,,,0.00,WUHU216HW,2013-01-23 12:54:00,
2013-01-23 07:59:00,18.7,8.1,30.32,North,0,0.0,0.0,63,0.00,,,0.00,WUHU216HW,2013-01-23 12:59:00,
2013-01-23 08:04:00,18.4,7.8,30.32,North,0,0.0,0.0,63,0.00,,,0.00,WUHU216HW,2013-01-23 13:04:00,
2013-01-23 08:09:00,18.5,7.9,30.32,North,0,0.0,0.0,63,0.00,,,0.00,WUHU216HW,2013-01-23 13:09:00,
2013-01-23 08:14:00,18.7,8.5,30.32,North,0,0.0,0.0,64,0.00,,,0.00,WUHU216HW,2013-01-23 13:14:00,
2013-01-23 08:19:00,19.3,8.9,30.32,North,0,0.0,0.0,64,0.00,,,0.00,WUHU216HW,2013-01-23 13:19:00,
2013-01-23 08:24:00,19.6,9.3,30.32,North,0,0.0,0.0,64,0.00,,,0.00,WUHU216HW,2013-01-23 13:24:00,
2013-01-23 08:29:00,20.0,9.6,30.32,North,0,0.0,0.0,64,0.00,,,0.00,WUHU216HW,2013-01-23 13:29:00,
2013-01-23 08:34:00,20.2,10.2,30.32,North,0,0.0,0.0,65,0.00,,,0.00,WUHU216HW,2013-01-23 13:34:00,
2013-01-23 08:39:00,20.5,10.2,30.32,North,0,0.0,0.0,64,0.00,,,0.00,WUHU216HW,2013-01-23 13:39:00,
2013-01-23 08:44:00,21.1,10.7,30.32,North,0,0.0,0.0,64,0.00,,,0.00,WUHU216HW,2013-01-23 13:44:00,
2013-01-23 08:49:00,21.4,11.1,30.33,North,0,0.0,0.0,64,0.00,,,0.00,WUHU216HW,2013-01-23 13:49:00,
2013-01-23 08:54:00,21.8,11.4,30.33,North,0,0.0,0.0,64,0.00,,,0.00,WUHU216HW,2013-01-23 13:54:00,
2013-01-23 08:59:00,22.3,11.6,30.34,North,0,0.0,0.0,63,0.00,,,0.00,WUHU216HW,2013-01-23 13:59:00,
2013-01-23 09:04:00,22.9,11.0,30.33,North,0,0.0,0.0,60,0.00,,,0.00,WUHU216HW,2013-01-23 14:04:00,
2013-01-23 09:09:00,23.8,11.1,30.33,North,0,0.0,0.0,58,0.00,,,0.00,WUHU216HW,2013-01-23 14:09:00,
2013-01-23 09:14:00,24.3,7.4,30.33,North,0,0.0,0.0,48,0.00,,,0.00,WUHU216HW,2013-01-23 14:14:00,
2013-01-23 09:19:00,24.7,9.1,30.33,North,0,0.0,0.0,51,0.00,,,0.00,WUHU216HW,2013-01-23 14:19:00,
2013-01-23 09:24:00,25.2,8.2,30.34,North,0,0.0,0.0,48,0.00,,,0.00,WUHU216HW,2013-01-23 14:24:00,
2013-01-23 09:29:00,25.6,9.0,30.34,North,0,0.0,0.0,49,0.00,,,0.00,WUHU216HW,2013-01-23 14:29:00,
2013-01-23 09:34:00,25.6,8.0,30.34,North,0,0.0,0.0,47,0.00,,,0.00,WUHU216HW,2013-01-23 14:34:00,
2013-01-23 09:39:00,25.9,8.8,30.34,North,0,0.0,0.0,48,0.00,,,0.00,WUHU216HW,2013-01-23 14:39:00,
2013-01-23 09:44:00,26.3,7.7,30.34,North,0,0.0,0.0,45,0.00,,,0.00,WUHU216HW,2013-01-23 14:44:00,
2013-01-23 09:49:00,26.3,8.6,30.34,North,0,0.0,0.0,47,0.00,,,0.00,WUHU216HW,2013-01-23 14:49:00,
2013-01-23 09:54:00,26.5,7.4,30.34,North,0,0.0,0.0,44,0.00,,,0.00,WUHU216HW,2013-01-23 14:54:00,
2013-01-23 09:59:00,26.6,8.0,30.35,North,0,0.0,0.0,45,0.00,,,0.00,WUHU216HW,2013-01-23 14:59:00,
2013-01-23 10:04:00,27.2,9.6,30.35,North,0,0.0,0.0,47,0.00,,,0.00,WUHU216HW,2013-01-23 15:04:00,
2013-01-23 10:09:00,27.5,8.9,30.34,North,0,0.0,0.0,45,0.00,,,0.00,WUHU216HW,2013-01-23 15:09:00,
2013-01-23 10:14:00,27.7,8.6,30.34,North,0,0.0,0.0,44,0.00,,,0.00,WUHU216HW,2013-01-23 15:14:00,
2013-01-23 10:19:00,28.1,7.9,30.34,North,0,0.0,0.0,42,0.00,,,0.00,WUHU216HW,2013-01-23 15:19:00,
2013-01-23 10:24:00,28.3,8.0,30.34,North,0,0.0,0.0,42,0.00,,,0.00,WUHU216HW,2013-01-23 15:24:00,
2013-01-23 10:29:00,28.6,8.9,30.34,North,0,0.0,0.0,43,0.00,,,0.00,WUHU216HW,2013-01-23 15:29:00,
2013-01-23 10:34:00,29.0,9.2,30.34,North,0,0.0,0.0,43,0.00,,,0.00,WUHU216HW,2013-01-23 15:34:00,
2013-01-23 10:39:00,29.2,7.2,30.34,North,0,0.0,0.0,39,0.00,,,0.00,WUHU216HW,2013-01-23 15:39:00,
2013-01-23 10:44:00,29.2,7.2,30.34,North,0,0.0,0.0,39,0.00,,,0.00,WUHU216HW,2013-01-23 15:44:00,
2013-01-23 10:49:00,29.5,8.6,30.34,North,0,0.0,0.0,41,0.00,,,0.00,WUHU216HW,2013-01-23 15:49:00,
2013-01-23 10:54:00,29.9,9.6,30.34,North,0,0.0,0.0,42,0.00,,,0.00,WUHU216HW,2013-01-23 15:54:00,
2013-01-23 10:59:00,30.1,9.2,30.33,North,0,0.0,0.0,41,0.00,,,0.00,WUHU216HW,2013-01-23 15:59:00,
2013-01-23 11:04:00,30.4,9.5,30.33,North,0,0.0,0.0,41,0.00,,,0.00,WUHU216HW,2013-01-23 16:04:00,
2013-01-23 11:09:00,30.6,9.2,30.33,North,0,0.0,0.0,40,0.00,,,0.00,WUHU216HW,2013-01-23 16:09:00,
2013-01-23 11:14:00,30.6,7.9,30.32,North,0,0.0,0.0,38,0.00,,,0.00,WUHU216HW,2013-01-23 16:14:00,
2013-01-23 11:19:00,30.6,7.3,30.32,North,0,0.0,0.0,37,0.00,,,0.00,WUHU216HW,2013-01-23 16:19:00,
2013-01-23 11:24:00,31.0,8.2,30.31,North,0,0.0,0.0,38,0.00,,,0.00,WUHU216HW,2013-01-23 16:24:00,
2013-01-23 11:29:00,31.3,7.9,30.31,North,0,0.0,0.0,37,0.00,,,0.00,WUHU216HW,2013-01-23 16:29:00,
2013-01-23 11:34:00,31.9,8.4,30.30,North,0,0.0,0.0,37,0.00,,,0.00,WUHU216HW,2013-01-23 16:34:00,
2013-01-23 11:39:00,32.0,8.6,30.30,North,0,0.0,0.0,37,0.00,,,0.00,WUHU216HW,2013-01-23 16:39:00,
2013-01-23 11:44:00,32.2,9.4,30.30,North,0,0.0,0.0,38,0.00,,,0.00,WUHU216HW,2013-01-23 16:44:00,
2013-01-23 11:49:00,32.0,9.2,30.29,North,0,0.0,0.0,38,0.00,,,0.00,WUHU216HW,2013-01-23 16:49:00,
2013-01-23 11:54:00,32.6,9.0,30.29,North,0,0.0,0.0,37,0.00,,,0.00,WUHU216HW,2013-01-23 16:54:00,
2013-01-23 11:59:00,32.8,9.8,30.29,North,0,0.0,0.0,38,0.00,,,0.00,WUHU216HW,2013-01-23 16:59:00,
2013-01-23 12:04:00,33.3,11.0,30.28,North,0,0.0,0.0,39,0.00,,,0.00,WUHU216HW,2013-01-23 17:04:00,
2013-01-23 12:09:00,33.8,10.8,30.28,North,0,0.0,0.0,38,0.00,,,0.00,WUHU216HW,2013-01-23 17:09:00,
2013-01-23 12:14:00,33.7,11.3,30.27,North,0,0.0,0.0,39,0.00,,,0.00,WUHU216HW,2013-01-23 17:14:00,
2013-01-23 12:19:00,34.0,11.6,30.27,North,0,0.0,0.0,39,0.00,,,0.00,WUHU216HW,2013-01-23 17:19:00,
2013-01-23 12:24:00,34.2,11.8,30.26,North,0,0.0,0.0,39,0.00,,,0.00,WUHU216HW,2013-01-23 17:24:00,
2013-01-23 12:29:00,34.6,12.1,30.26,North,0,0.0,0.0,39,0.00,,,0.00,WUHU216HW,2013-01-23 17:29:00,
2013-01-23 12:34:00,34.9,12.4,30.25,North,0,0.0,0.0,39,0.00,,,0.00,WUHU216HW,2013-01-23 17:34:00,
2013-01-23 12:39:00,35.3,12.7,30.25,North,0,0.0,0.0,39,0.00,,,0.00,WUHU216HW,2013-01-23 17:39:00,
2013-01-23 12:44:00,35.1,11.9,30.25,North,0,0.0,0.0,38,0.00,,,0.00,WUHU216HW,2013-01-23 17:44:00,
2013-01-23 12:49:00,35.1,11.9,30.24,North,0,0.0,0.0,38,0.00,,,0.00,WUHU216HW,2013-01-23 17:49:00,
2013-01-23 12:54:00,35.5,12.9,30.24,North,0,0.0,0.0,39,0.00,,,0.00,WUHU216HW,2013-01-23 17:54:00,
2013-01-23 12:59:00,35.8,13.9,30.23,North,0,0.0,0.0,40,0.00,,,0.00,WUHU216HW,2013-01-23 17:59:00,
2013-01-23 13:04:00,36.2,14.1,30.23,North,0,0.0,0.0,40,0.00,,,0.00,WUHU216HW,2013-01-23 18:04:00,
2013-01-23 13:09:00,36.4,13.1,30.23,North,0,0.0,0.0,38,0.00,,,0.00,WUHU216HW,2013-01-23 18:09:00,
2013-01-23 13:14:00,36.4,13.1,30.22,North,0,0.0,0.0,38,0.00,,,0.00,WUHU216HW,2013-01-23 18:14:00,
2013-01-23 13:19:00,36.4,13.1,30.22,North,0,0.0,0.0,38,0.00,,,0.00,WUHU216HW,2013-01-23 18:19:00,
2013-01-23 13:24:00,36.5,13.2,30.22,North,0,0.0,0.0,38,0.00,,,0.00,WUHU216HW,2013-01-23 18:24:00,
2013-01-23 13:29:00,37.1,14.3,30.22,North,0,0.0,0.0,39,0.00,,,0.00,WUHU216HW,2013-01-23 18:29:00,
2013-01-23 13:34:00,37.3,13.2,30.22,North,0,0.0,0.0,37,0.00,,,0.00,WUHU216HW,2013-01-23 18:34:00,
2013-01-23 13:39:00,37.3,13.9,30.21,North,0,0.0,0.0,38,0.00,,,0.00,WUHU216HW,2013-01-23 18:39:00,
2013-01-23 13:44:00,37.4,14.7,30.21,North,0,0.0,0.0,39,0.00,,,0.00,WUHU216HW,2013-01-23 18:44:00,
2013-01-23 13:49:00,37.6,14.1,30.21,North,0,0.0,0.0,38,0.00,,,0.00,WUHU216HW,2013-01-23 18:49:00,
2013-01-23 13:54:00,37.8,14.9,30.21,North,0,0.0,0.0,39,0.00,,,0.00,WUHU216HW,2013-01-23 18:54:00,
2013-01-23 13:59:00,38.0,15.1,30.21,North,0,0.0,0.0,39,0.00,,,0.00,WUHU216HW,2013-01-23 18:59:00,
2013-01-23 14:04:00,38.2,15.3,30.20,North,0,0.0,0.0,39,0.00,,,0.00,WUHU216HW,2013-01-23 19:04:00,
2013-01-23 14:09:00,38.5,14.9,30.20,North,0,0.0,0.0,38,0.00,,,0.00,WUHU216HW,2013-01-23 19:09:00,
2013-01-23 14:14:00,38.5,14.9,30.20,North,0,0.0,0.0,38,0.00,,,0.00,WUHU216HW,2013-01-23 19:14:00,
2013-01-23 14:19:00,38.7,15.1,30.19,North,0,0.0,0.0,38,0.00,,,0.00,WUHU216HW,2013-01-23 19:19:00,
2013-01-23 14:24:00,38.7,15.1,30.20,North,0,0.0,0.0,38,0.00,,,0.00,WUHU216HW,2013-01-23 19:24:00,
2013-01-23 14:29:00,38.9,15.9,30.19,North,0,0.0,0.0,39,0.00,,,0.00,WUHU216HW,2013-01-23 19:29:00,
2013-01-23 14:34:00,39.1,16.7,30.19,North,0,0.0,0.0,40,0.00,,,0.00,WUHU216HW,2013-01-23 19:34:00,
2013-01-23 14:39:00,38.9,15.9,30.19,North,0,0.0,0.0,39,0.00,,,0.00,WUHU216HW,2013-01-23 19:39:00,
2013-01-23 14:44:00,38.3,14.9,30.19,North,0,0.0,0.0,38,0.00,,,0.00,WUHU216HW,2013-01-23 19:44:00,
2013-01-23 14:49:00,38.3,15.5,30.19,North,0,0.0,0.0,39,0.00,,,0.00,WUHU216HW,2013-01-23 19:49:00,
2013-01-23 14:54:00,38.5,15.7,30.19,North,0,0.0,0.0,39,0.00,,,0.00,WUHU216HW,2013-01-23 19:54:00,
2013-01-23 14:59:00,38.9,15.3,30.19,North,0,0.0,0.0,38,0.00,,,0.00,WUHU216HW,2013-01-23 19:59:00,
2013-01-23 15:04:00,39.6,17.3,30.19,North,0,0.0,0.0,40,0.00,,,0.00,WUHU216HW,2013-01-23 20:04:00,
2013-01-23 15:09:00,40.3,16.6,30.19,North,0,0.0,0.0,38,0.00,,,0.00,WUHU216HW,2013-01-23 20:09:00,
2013-01-23 15:14:00,40.3,16.6,30.19,North,0,0.0,0.0,38,0.00,,,0.00,WUHU216HW,2013-01-23 20:14:00,
2013-01-23 15:19:00,40.1,16.5,30.18,North,0,0.0,0.0,38,0.00,,,0.00,WUHU216HW,2013-01-23 20:19:00,
2013-01-23 15:24:00,40.3,17.3,30.17,North,0,0.0,0.0,39,0.00,,,0.00,WUHU216HW,2013-01-23 20:24:00,
2013-01-23 15:29:00,40.7,17.6,30.17,North,0,0.0,0.0,39,0.00,,,0.00,WUHU216HW,2013-01-23 20:29:00,
2013-01-23 15:34:00,40.7,16.9,30.17,North,0,0.0,0.0,38,0.00,,,0.00,WUHU216HW,2013-01-23 20:34:00,
2013-01-23 15:39:00,40.7,16.9,30.17,North,0,0.0,0.0,38,0.00,,,0.00,WUHU216HW,2013-01-23 20:39:00,
2013-01-23 15:44:00,40.7,16.9,30.17,North,0,0.0,0.0,38,0.00,,,0.00,WUHU216HW,2013-01-23 20:44:00,
2013-01-23 15:49:00,40.5,17.4,30.17,North,0,0.0,0.0,39,0.00,,,0.00,WUHU216HW,2013-01-23 20:49:00,
2013-01-23 15:54:00,40.3,17.3,30.17,North,0,0.0,0.0,39,0.00,,,0.00,WUHU216HW,2013-01-23 20:54:00,
2013-01-23 15:59:00,40.3,15.9,30.17,North,0,0.0,0.0,37,0.00,,,0.00,WUHU216HW,2013-01-23 20:59:00,
2013-01-23 16:04:00,40.0,16.3,30.17,North,0,0.0,0.0,38,0.00,,,0.00,WUHU216HW,2013-01-23 21:04:00,
2013-01-23 16:09:00,40.0,16.9,30.17,North,0,0.0,0.0,39,0.00,,,0.00,WUHU216HW,2013-01-23 21:09:00,
2013-01-23 16:14:00,39.8,16.1,30.17,North,0,0.0,0.0,38,0.00,,,0.00,WUHU216HW,2013-01-23 21:14:00,
2013-01-23 16:19:00,39.8,16.7,30.17,North,0,0.0,0.0,39,0.00,,,0.00,WUHU216HW,2013-01-23 21:19:00,
2013-01-23 16:24:00,39.6,15.9,30.17,North,0,0.0,0.0,38,0.00,,,0.00,WUHU216HW,2013-01-23 21:24:00,
2013-01-23 16:29:00,39.4,15.8,30.17,North,0,0.0,0.0,38,0.00,,,0.00,WUHU216HW,2013-01-23 21:29:00,
2013-01-23 16:34:00,39.2,16.3,30.17,North,0,0.0,0.0,39,0.00,,,0.00,WUHU216HW,2013-01-23 21:34:00,
2013-01-23 16:39:00,39.1,16.1,30.17,North,0,0.0,0.0,39,0.00,,,0.00,WUHU216HW,2013-01-23 21:39:00,
2013-01-23 16:44:00,39.1,16.7,30.17,North,0,0.0,0.0,40,0.00,,,0.00,WUHU216HW,2013-01-23 21:44:00,
2013-01-23 16:49:00,38.9,15.9,30.17,North,0,0.0,0.0,39,0.00,,,0.00,WUHU216HW,2013-01-23 21:49:00,
2013-01-23 16:54:00,38.9,16.6,30.17,North,0,0.0,0.0,40,0.00,,,0.00,WUHU216HW,2013-01-23 21:54:00,
2013-01-23 16:59:00,38.9,16.6,30.17,North,0,0.0,0.0,40,0.00,,,0.00,WUHU216HW,2013-01-23 21:59:00,
2013-01-23 17:04:00,38.9,17.1,30.17,North,0,0.0,0.0,41,0.00,,,0.00,WUHU216HW,2013-01-23 22:04:00,
2013-01-23 17:09:00,38.7,16.9,30.17,North,0,0.0,0.0,41,0.00,,,0.00,WUHU216HW,2013-01-23 22:09:00,
2013-01-23 17:14:00,38.5,16.8,30.17,North,0,0.0,0.0,41,0.00,,,0.00,WUHU216HW,2013-01-23 22:14:00,
2013-01-23 17:19:00,38.3,16.7,30.17,North,0,0.0,0.0,41,0.00,,,0.00,WUHU216HW,2013-01-23 22:19:00,
2013-01-23 17:24:00,38.2,17.0,30.17,North,0,0.0,0.0,42,0.00,,,0.00,WUHU216HW,2013-01-23 22:24:00,
2013-01-23 17:29:00,38.0,16.8,30.17,North,0,0.0,0.0,42,0.00,,,0.00,WUHU216HW,2013-01-23 22:29:00,
2013-01-23 17:34:00,37.8,16.7,30.17,North,0,0.0,0.0,42,0.00,,,0.00,WUHU216HW,2013-01-23 22:34:00,
2013-01-23 17:39:00,37.4,16.8,30.17,North,0,0.0,0.0,43,0.00,,,0.00,WUHU216HW,2013-01-23 22:39:00,
2013-01-23 17:44:00,37.3,16.8,30.17,North,0,0.0,0.0,43,0.00,,,0.00,WUHU216HW,2013-01-23 22:44:00,
2013-01-23 17:49:00,37.1,16.6,30.17,North,0,0.0,0.0,43,0.00,,,0.00,WUHU216HW,2013-01-23 22:49:00,
2013-01-23 17:54:00,36.7,16.7,30.17,North,0,0.0,0.0,44,0.00,,,0.00,WUHU216HW,2013-01-23 22:54:00,
2013-01-23 17:59:00,36.4,16.4,30.16,North,0,0.0,0.0,44,0.00,,,0.00,WUHU216HW,2013-01-23 22:59:00,
2013-01-23 18:04:00,36.0,16.1,30.16,North,0,0.0,0.0,44,0.00,,,0.00,WUHU216HW,2013-01-23 23:04:00,
2013-01-23 18:09:00,35.6,15.8,30.16,North,0,0.0,0.0,44,0.00,,,0.00,WUHU216HW,2013-01-23 23:09:00,
2013-01-23 18:14:00,35.3,15.9,30.16,North,0,0.0,0.0,45,0.00,,,0.00,WUHU216HW,2013-01-23 23:14:00,
2013-01-23 21:00:00,29.9,14.8,30.11,North,0,0.0,0.0,53,0.00,,,0.00,WUHU216HW,2013-01-24 02:00:00,
2013-01-23 21:05:00,29.9,14.8,30.12,North,0,0.0,0.0,53,0.00,,,0.00,WUHU216HW,2013-01-24 02:05:00,
2013-01-23 21:10:00,29.7,15.0,30.11,North,0,0.0,0.0,54,0.00,,,0.00,WUHU216HW,2013-01-24 02:10:00,
2013-01-23 21:15:00,29.7,15.0,30.11,North,0,0.0,0.0,54,0.00,,,0.00,WUHU216HW,2013-01-24 02:15:00,
2013-01-23 21:20:00,29.5,14.9,30.11,North,0,0.0,0.0,54,0.00,,,0.00,WUHU216HW,2013-01-24 02:20:00,
2013-01-23 21:25:00,29.5,15.3,30.10,North,0,0.0,0.0,55,0.00,,,0.00,WUHU216HW,2013-01-24 02:25:00,
2013-01-23 21:30:00,29.3,15.1,30.10,North,0,0.0,0.0,55,0.00,,,0.00,WUHU216HW,2013-01-24 02:30:00,
2013-01-23 21:35:00,29.3,15.6,30.10,North,0,0.0,0.0,56,0.00,,,0.00,WUHU216HW,2013-01-24 02:35:00,
2013-01-23 21:40:00,29.3,15.6,30.10,North,0,0.0,0.0,56,0.00,,,0.00,WUHU216HW,2013-01-24 02:40:00,
2013-01-23 21:45:00,29.3,15.6,30.10,North,0,0.0,0.0,56,0.00,,,0.00,WUHU216HW,2013-01-24 02:45:00,
2013-01-23 21:50:00,29.2,15.4,30.09,North,0,0.0,0.0,56,0.00,,,0.00,WUHU216HW,2013-01-24 02:50:00,
2013-01-23 21:55:00,29.3,15.6,30.09,North,0,0.0,0.0,56,0.00,,,0.00,WUHU216HW,2013-01-24 02:55:00,
2013-01-23 22:00:00,29.3,15.6,30.09,North,0,0.0,0.0,56,0.00,,,0.00,WUHU216HW,2013-01-24 03:00:00,
2013-01-23 22:05:00,29.3,15.6,30.09,North,0,0.0,0.0,56,0.00,,,0.00,WUHU216HW,2013-01-24 03:05:00,
2013-01-23 22:10:00,29.2,15.4,30.09,North,0,0.0,0.0,56,0.00,,,0.00,WUHU216HW,2013-01-24 03:10:00,
2013-01-23 22:15:00,29.2,15.4,30.09,North,0,0.0,0.0,56,0.00,,,0.00,WUHU216HW,2013-01-24 03:15:00,
2013-01-23 22:20:00,29.2,15.4,30.09,North,0,0.0,0.0,56,0.00,,,0.00,WUHU216HW,2013-01-24 03:20:00,
2013-01-23 22:25:00,29.0,15.2,30.09,North,0,0.0,0.0,56,0.00,,,0.00,WUHU216HW,2013-01-24 03:25:00,
2013-01-23 22:30:00,28.8,15.0,30.09,North,0,0.0,0.0,56,0.00,,,0.00,WUHU216HW,2013-01-24 03:30:00,
2013-01-23 22:35:00,29.0,15.2,30.08,North,0,0.0,0.0,56,0.00,,,0.00,WUHU216HW,2013-01-24 03:35:00,
2013-01-23 22:40:00,29.0,15.2,30.08,North,0,0.0,0.0,56,0.00,,,0.00,WUHU216HW,2013-01-24 03:40:00,
2013-01-23 22:45:00,29.0,15.2,30.07,North,0,0.0,0.0,56,0.00,,,0.00,WUHU216HW,2013-01-24 03:45:00,
2013-01-23 22:50:00,28.8,15.0,30.07,North,0,0.0,0.0,56,0.00,,,0.00,WUHU216HW,2013-01-24 03:50:00,
2013-01-23 22:55:00,29.0,15.2,30.06,North,0,0.0,0.0,56,0.00,,,0.00,WUHU216HW,2013-01-24 03:55:00,
2013-01-23 23:00:00,29.0,15.2,30.07,North,0,0.0,0.0,56,0.00,,,0.00,WUHU216HW,2013-01-24 04:00:00,
2013-01-23 23:05:00,28.8,15.0,30.06,North,0,0.0,0.0,56,0.00,,,0.00,WUHU216HW,2013-01-24 04:05:00,
2013-01-23 23:10:00,28.8,15.5,30.06,North,0,0.0,0.0,57,0.00,,,0.00,WUHU216HW,2013-01-24 04:10:00,
2013-01-23 23:15:00,28.8,15.5,30.05,North,0,0.0,0.0,57,0.00,,,0.00,WUHU216HW,2013-01-24 04:15:00,
2013-01-23 23:20:00,28.6,15.8,30.05,North,0,0.0,0.0,58,0.00,,,0.00,WUHU216HW,2013-01-24 04:20:00,
2013-01-23 23:25:00,28.4,15.6,30.05,North,0,0.0,0.0,58,0.00,,,0.00,WUHU216HW,2013-01-24 04:25:00,
2013-01-23 23:30:00,28.4,15.6,30.04,North,0,0.0,0.0,58,0.00,,,0.00,WUHU216HW,2013-01-24 04:30:00,
2013-01-23 23:35:00,28.4,15.9,30.05,North,0,0.0,0.0,59,0.00,,,0.00,WUHU216HW,2013-01-24 04:35:00,
2013-01-23 23:40:00,28.4,15.9,30.04,North,0,0.0,0.0,59,0.00,,,0.00,WUHU216HW,2013-01-24 04:40:00,
2013-01-23 23:45:00,28.3,15.8,30.04,North,0,0.0,0.0,59,0.00,,,0.00,WUHU216HW,2013-01-24 04:45:00,
2013-01-23 23:50:00,28.3,16.2,30.03,North,0,0.0,0.0,60,0.00,,,0.00,WUHU216HW,2013-01-24 04:50:00,
2013-01-23 23:55:00,28.4,16.4,30.03,North,0,0.0,0.0,60,0.00,,,0.00,WUHU216HW,2013-01-24 04:55:00,